sensor_id;sensor_type;location;lat;lon;timestamp;P1;durP1;ratioP1;P2;durP2;ratioP2
64885;SDS011;51514;52.206;5.114;2022-12-07T00:01:41;11.55;;;4.60;;
64885;SDS011;51514;52.206;5.114;2022-12-07T00:04:09;10.02;;;3.70;;
64885;SDS011;51514;52.206;5.114;2022-12-07T00:06:40;11.65;;;4.30;;
64885;SDS011;51514;52.206;5.114;2022-12-07T00:09:07;8.48;;;3.03;;
64885;SDS011;51514;52.206;5.114;2022-12-07T00:11:35;9.07;;;4.07;;
64885;SDS011;51514;52.206;5.114;2022-12-07T00:14:02;9.52;;;3.03;;
64885;SDS011;51514;52.206;5.114;2022-12-07T00:16:30;7.05;;;3.92;;
64885;SDS011;51514;52.206;5.114;2022-12-07T00:18:57;8.15;;;3.60;;
64885;SDS011;51514;52.206;5.114;2022-12-07T00:21:27;7.05;;;3.00;;
64885;SDS011;51514;52.206;5.114;2022-12-07T00:23:54;8.88;;;4.15;;
64885;SDS011;51514;52.206;5.114;2022-12-07T00:26:34;5.60;;;2.95;;
64885;SDS011;51514;52.206;5.114;2022-12-07T00:29:04;6.82;;;4.47;;
64885;SDS011;51514;52.206;5.114;2022-12-07T00:31:44;11.15;;;4.35;;
64885;SDS011;51514;52.206;5.114;2022-12-07T00:34:13;9.68;;;3.97;;
64885;SDS011;51514;52.206;5.114;2022-12-07T00:36:41;7.22;;;3.75;;
64885;SDS011;51514;52.206;5.114;2022-12-07T00:39:06;9.75;;;3.58;;
64885;SDS011;51514;52.206;5.114;2022-12-07T00:41:32;8.70;;;3.10;;
64885;SDS011;51514;52.206;5.114;2022-12-07T00:43:57;9.60;;;3.10;;
64885;SDS011;51514;52.206;5.114;2022-12-07T00:46:23;5.20;;;2.92;;
64885;SDS011;51514;52.206;5.114;2022-12-07T00:48:49;3.78;;;2.42;;
64885;SDS011;51514;52.206;5.114;2022-12-07T00:51:16;7.43;;;2.78;;
64885;SDS011;51514;52.206;5.114;2022-12-07T00:53:43;6.90;;;2.58;;
64885;SDS011;51514;52.206;5.114;2022-12-07T00:56:11;5.93;;;2.42;;
64885;SDS011;51514;52.206;5.114;2022-12-07T00:58:38;7.35;;;3.85;;
64885;SDS011;51514;52.206;5.114;2022-12-07T01:01:04;6.32;;;3.17;;
64885;SDS011;51514;52.206;5.114;2022-12-07T01:03:31;9.77;;;3.42;;
64885;SDS011;51514;52.206;5.114;2022-12-07T01:05:56;13.10;;;3.03;;
64885;SDS011;51514;52.206;5.114;2022-12-07T01:08:22;7.70;;;2.45;;
64885;SDS011;51514;52.206;5.114;2022-12-07T01:10:49;4.38;;;2.28;;
64885;SDS011;51514;52.206;5.114;2022-12-07T01:13:21;8.15;;;2.50;;
64885;SDS011;51514;52.206;5.114;2022-12-07T01:15:47;6.47;;;2.50;;
64885;SDS011;51514;52.206;5.114;2022-12-07T01:18:12;7.05;;;2.70;;
64885;SDS011;51514;52.206;5.114;2022-12-07T01:20:38;6.00;;;2.60;;
64885;SDS011;51514;52.206;5.114;2022-12-07T01:23:03;5.70;;;2.60;;
64885;SDS011;51514;52.206;5.114;2022-12-07T01:25:29;5.22;;;3.00;;
64885;SDS011;51514;52.206;5.114;2022-12-07T01:27:54;5.60;;;2.67;;
64885;SDS011;51514;52.206;5.114;2022-12-07T01:30:19;7.75;;;2.97;;
64885;SDS011;51514;52.206;5.114;2022-12-07T01:32:45;4.95;;;2.65;;
64885;SDS011;51514;52.206;5.114;2022-12-07T01:35:10;7.75;;;3.05;;
64885;SDS011;51514;52.206;5.114;2022-12-07T01:37:36;7.70;;;2.90;;
64885;SDS011;51514;52.206;5.114;2022-12-07T01:40:02;13.05;;;4.35;;
64885;SDS011;51514;52.206;5.114;2022-12-07T01:42:29;7.25;;;2.90;;
64885;SDS011;51514;52.206;5.114;2022-12-07T01:47:49;8.88;;;3.30;;
64885;SDS011;51514;52.206;5.114;2022-12-07T01:50:18;10.90;;;3.47;;
64885;SDS011;51514;52.206;5.114;2022-12-07T01:52:45;9.07;;;2.83;;
64885;SDS011;51514;52.206;5.114;2022-12-07T01:57:42;8.98;;;2.95;;
64885;SDS011;51514;52.206;5.114;2022-12-07T02:00:11;11.60;;;3.22;;
64885;SDS011;51514;52.206;5.114;2022-12-07T02:02:38;7.55;;;3.00;;
64885;SDS011;51514;52.206;5.114;2022-12-07T02:05:08;9.77;;;2.80;;
64885;SDS011;51514;52.206;5.114;2022-12-07T02:07:34;8.23;;;3.00;;
64885;SDS011;51514;52.206;5.114;2022-12-07T02:12:41;8.73;;;3.65;;
64885;SDS011;51514;52.206;5.114;2022-12-07T02:15:07;9.75;;;2.80;;
64885;SDS011;51514;52.206;5.114;2022-12-07T02:26:08;8.27;;;2.88;;
64885;SDS011;51514;52.206;5.114;2022-12-07T02:28:36;5.93;;;3.65;;
64885;SDS011;51514;52.206;5.114;2022-12-07T02:31:14;6.88;;;2.90;;
64885;SDS011;51514;52.206;5.114;2022-12-07T02:33:54;7.47;;;2.97;;
64885;SDS011;51514;52.206;5.114;2022-12-07T02:36:30;7.78;;;2.80;;
64885;SDS011;51514;52.206;5.114;2022-12-07T02:39:03;5.25;;;2.78;;
64885;SDS011;51514;52.206;5.114;2022-12-07T02:41:38;5.40;;;2.70;;
64885;SDS011;51514;52.206;5.114;2022-12-07T02:44:08;8.82;;;2.75;;
64885;SDS011;51514;52.206;5.114;2022-12-07T02:46:40;7.28;;;2.90;;
64885;SDS011;51514;52.206;5.114;2022-12-07T02:51:34;9.68;;;2.70;;
64885;SDS011;51514;52.206;5.114;2022-12-07T02:54:12;6.05;;;2.40;;
64885;SDS011;51514;52.206;5.114;2022-12-07T02:56:44;9.10;;;2.63;;
64885;SDS011;51514;52.206;5.114;2022-12-07T03:13:10;5.65;;;2.50;;
64885;SDS011;51514;52.206;5.114;2022-12-07T03:18:09;6.82;;;2.60;;
64885;SDS011;51514;52.206;5.114;2022-12-07T03:20:38;6.53;;;2.20;;
64885;SDS011;51514;52.206;5.114;2022-12-07T03:25:35;6.32;;;2.83;;
64885;SDS011;51514;52.206;5.114;2022-12-07T03:28:06;5.05;;;2.20;;
64885;SDS011;51514;52.206;5.114;2022-12-07T03:33:20;6.65;;;2.22;;
64885;SDS011;51514;52.206;5.114;2022-12-07T03:35:52;5.57;;;2.60;;
64885;SDS011;51514;52.206;5.114;2022-12-07T03:41:23;8.70;;;2.90;;
64885;SDS011;51514;52.206;5.114;2022-12-07T03:43:53;10.18;;;4.18;;
64885;SDS011;51514;52.206;5.114;2022-12-07T03:49:40;8.40;;;3.75;;
64885;SDS011;51514;52.206;5.114;2022-12-07T03:54:37;8.93;;;3.03;;
64885;SDS011;51514;52.206;5.114;2022-12-07T03:57:07;6.68;;;3.50;;
64885;SDS011;51514;52.206;5.114;2022-12-07T03:59:34;4.63;;;2.70;;
64885;SDS011;51514;52.206;5.114;2022-12-07T04:02:03;7.10;;;2.85;;
64885;SDS011;51514;52.206;5.114;2022-12-07T04:04:30;6.13;;;2.92;;
64885;SDS011;51514;52.206;5.114;2022-12-07T04:06:56;4.90;;;2.80;;
64885;SDS011;51514;52.206;5.114;2022-12-07T04:09:22;4.78;;;3.20;;
64885;SDS011;51514;52.206;5.114;2022-12-07T04:11:47;8.45;;;2.67;;
64885;SDS011;51514;52.206;5.114;2022-12-07T04:14:13;4.95;;;2.22;;
64885;SDS011;51514;52.206;5.114;2022-12-07T04:16:45;3.13;;;1.80;;
64885;SDS011;51514;52.206;5.114;2022-12-07T04:19:10;5.18;;;1.77;;
64885;SDS011;51514;52.206;5.114;2022-12-07T04:21:35;6.90;;;2.10;;
64885;SDS011;51514;52.206;5.114;2022-12-07T04:24:01;3.65;;;2.03;;
64885;SDS011;51514;52.206;5.114;2022-12-07T04:26:26;7.57;;;2.60;;
64885;SDS011;51514;52.206;5.114;2022-12-07T04:28:51;5.43;;;2.47;;
64885;SDS011;51514;52.206;5.114;2022-12-07T04:31:17;10.52;;;2.40;;
64885;SDS011;51514;52.206;5.114;2022-12-07T04:33:42;6.63;;;2.50;;
64885;SDS011;51514;52.206;5.114;2022-12-07T04:36:07;13.20;;;3.08;;
64885;SDS011;51514;52.206;5.114;2022-12-07T04:38:33;8.18;;;2.15;;
64885;SDS011;51514;52.206;5.114;2022-12-07T04:40:58;9.00;;;3.30;;
64885;SDS011;51514;52.206;5.114;2022-12-07T04:43:30;6.15;;;2.22;;
64885;SDS011;51514;52.206;5.114;2022-12-07T04:45:55;7.75;;;2.65;;
64885;SDS011;51514;52.206;5.114;2022-12-07T04:48:20;5.63;;;2.50;;
64885;SDS011;51514;52.206;5.114;2022-12-07T04:50:47;4.65;;;2.35;;
64885;SDS011;51514;52.206;5.114;2022-12-07T04:53:13;9.15;;;2.47;;
64885;SDS011;51514;52.206;5.114;2022-12-07T04:55:39;2.85;;;1.98;;
64885;SDS011;51514;52.206;5.114;2022-12-07T04:58:04;5.10;;;1.92;;
64885;SDS011;51514;52.206;5.114;2022-12-07T05:00:29;9.10;;;2.30;;
64885;SDS011;51514;52.206;5.114;2022-12-07T05:02:55;4.75;;;2.00;;
64885;SDS011;51514;52.206;5.114;2022-12-07T05:05:20;4.70;;;2.00;;
64885;SDS011;51514;52.206;5.114;2022-12-07T05:07:45;5.80;;;2.50;;
64885;SDS011;51514;52.206;5.114;2022-12-07T05:10:11;6.55;;;2.30;;
64885;SDS011;51514;52.206;5.114;2022-12-07T05:12:36;4.93;;;1.80;;
64885;SDS011;51514;52.206;5.114;2022-12-07T05:15:01;1.92;;;1.65;;
64885;SDS011;51514;52.206;5.114;2022-12-07T05:17:27;7.88;;;2.15;;
64885;SDS011;51514;52.206;5.114;2022-12-07T05:19:52;4.57;;;2.00;;
64885;SDS011;51514;52.206;5.114;2022-12-07T05:22:17;6.82;;;2.75;;
64885;SDS011;51514;52.206;5.114;2022-12-07T05:24:43;4.85;;;2.50;;
64885;SDS011;51514;52.206;5.114;2022-12-07T05:27:08;5.22;;;1.70;;
64885;SDS011;51514;52.206;5.114;2022-12-07T05:29:33;6.47;;;2.50;;
64885;SDS011;51514;52.206;5.114;2022-12-07T05:31:58;9.60;;;2.47;;
64885;SDS011;51514;52.206;5.114;2022-12-07T05:34:24;8.57;;;3.17;;
64885;SDS011;51514;52.206;5.114;2022-12-07T05:36:49;6.63;;;2.33;;
64885;SDS011;51514;52.206;5.114;2022-12-07T05:39:15;8.38;;;2.78;;
64885;SDS011;51514;52.206;5.114;2022-12-07T05:41:40;7.63;;;2.30;;
64885;SDS011;51514;52.206;5.114;2022-12-07T05:44:24;9.30;;;2.65;;
64885;SDS011;51514;52.206;5.114;2022-12-07T05:46:50;9.40;;;2.60;;
64885;SDS011;51514;52.206;5.114;2022-12-07T05:49:15;10.18;;;4.05;;
64885;SDS011;51514;52.206;5.114;2022-12-07T05:51:40;10.18;;;2.90;;
64885;SDS011;51514;52.206;5.114;2022-12-07T05:54:06;7.53;;;2.35;;
64885;SDS011;51514;52.206;5.114;2022-12-07T05:56:31;8.45;;;2.50;;
64885;SDS011;51514;52.206;5.114;2022-12-07T05:58:56;6.25;;;2.17;;
64885;SDS011;51514;52.206;5.114;2022-12-07T06:01:40;10.77;;;2.50;;
64885;SDS011;51514;52.206;5.114;2022-12-07T06:04:06;11.02;;;2.75;;
64885;SDS011;51514;52.206;5.114;2022-12-07T06:06:31;9.07;;;2.72;;
64885;SDS011;51514;52.206;5.114;2022-12-07T06:08:56;9.57;;;3.08;;
64885;SDS011;51514;52.206;5.114;2022-12-07T06:11:22;7.28;;;2.20;;
64885;SDS011;51514;52.206;5.114;2022-12-07T06:14:06;9.57;;;3.58;;
64885;SDS011;51514;52.206;5.114;2022-12-07T06:16:31;9.60;;;2.92;;
64885;SDS011;51514;52.206;5.114;2022-12-07T06:18:56;6.78;;;2.88;;
64885;SDS011;51514;52.206;5.114;2022-12-07T06:21:22;11.10;;;3.10;;
64885;SDS011;51514;52.206;5.114;2022-12-07T06:23:47;4.72;;;2.13;;
64885;SDS011;51514;52.206;5.114;2022-12-07T06:26:13;8.00;;;2.90;;
64885;SDS011;51514;52.206;5.114;2022-12-07T06:28:38;9.02;;;2.72;;
64885;SDS011;51514;52.206;5.114;2022-12-07T06:31:04;5.28;;;2.70;;
64885;SDS011;51514;52.206;5.114;2022-12-07T06:33:29;10.15;;;2.70;;
64885;SDS011;51514;52.206;5.114;2022-12-07T06:35:54;8.43;;;2.50;;
64885;SDS011;51514;52.206;5.114;2022-12-07T06:38:20;10.02;;;3.08;;
64885;SDS011;51514;52.206;5.114;2022-12-07T06:40:46;6.93;;;2.17;;
64885;SDS011;51514;52.206;5.114;2022-12-07T06:43:11;6.45;;;2.55;;
64885;SDS011;51514;52.206;5.114;2022-12-07T06:45:37;7.32;;;2.97;;
64885;SDS011;51514;52.206;5.114;2022-12-07T06:48:02;6.45;;;2.90;;
64885;SDS011;51514;52.206;5.114;2022-12-07T06:50:28;9.70;;;3.80;;
64885;SDS011;51514;52.206;5.114;2022-12-07T06:52:53;13.60;;;4.43;;
64885;SDS011;51514;52.206;5.114;2022-12-07T06:55:18;17.38;;;6.47;;
64885;SDS011;51514;52.206;5.114;2022-12-07T06:57:44;14.80;;;5.35;;
64885;SDS011;51514;52.206;5.114;2022-12-07T07:00:09;13.05;;;5.70;;
64885;SDS011;51514;52.206;5.114;2022-12-07T07:02:35;13.38;;;4.72;;
64885;SDS011;51514;52.206;5.114;2022-12-07T07:05:01;10.40;;;4.32;;
64885;SDS011;51514;52.206;5.114;2022-12-07T07:07:26;8.70;;;3.22;;
64885;SDS011;51514;52.206;5.114;2022-12-07T07:09:51;7.50;;;3.08;;
64885;SDS011;51514;52.206;5.114;2022-12-07T07:12:17;8.65;;;2.80;;
64885;SDS011;51514;52.206;5.114;2022-12-07T07:14:42;8.75;;;3.25;;
64885;SDS011;51514;52.206;5.114;2022-12-07T07:17:08;7.22;;;2.67;;
64885;SDS011;51514;52.206;5.114;2022-12-07T07:19:33;5.93;;;2.60;;
64885;SDS011;51514;52.206;5.114;2022-12-07T07:21:58;4.82;;;2.28;;
64885;SDS011;51514;52.206;5.114;2022-12-07T07:24:24;14.05;;;2.70;;
64885;SDS011;51514;52.206;5.114;2022-12-07T07:26:49;9.98;;;3.67;;
64885;SDS011;51514;52.206;5.114;2022-12-07T07:29:14;8.43;;;3.15;;
64885;SDS011;51514;52.206;5.114;2022-12-07T07:31:40;4.82;;;2.50;;
64885;SDS011;51514;52.206;5.114;2022-12-07T07:34:05;5.55;;;2.35;;
64885;SDS011;51514;52.206;5.114;2022-12-07T07:36:30;7.88;;;2.83;;
64885;SDS011;51514;52.206;5.114;2022-12-07T07:38:56;6.18;;;2.55;;
64885;SDS011;51514;52.206;5.114;2022-12-07T07:41:21;8.25;;;2.63;;
64885;SDS011;51514;52.206;5.114;2022-12-07T07:43:46;8.38;;;2.70;;
64885;SDS011;51514;52.206;5.114;2022-12-07T07:46:12;8.82;;;2.30;;
64885;SDS011;51514;52.206;5.114;2022-12-07T07:48:37;9.30;;;3.05;;
64885;SDS011;51514;52.206;5.114;2022-12-07T07:51:06;6.93;;;2.35;;
64885;SDS011;51514;52.206;5.114;2022-12-07T07:55:57;10.85;;;3.08;;
64885;SDS011;51514;52.206;5.114;2022-12-07T07:58:23;13.18;;;2.45;;
64885;SDS011;51514;52.206;5.114;2022-12-07T08:00:49;4.97;;;2.38;;
64885;SDS011;51514;52.206;5.114;2022-12-07T08:03:14;5.78;;;2.35;;
64885;SDS011;51514;52.206;5.114;2022-12-07T08:05:40;7.55;;;3.00;;
64885;SDS011;51514;52.206;5.114;2022-12-07T08:08:05;12.02;;;3.00;;
64885;SDS011;51514;52.206;5.114;2022-12-07T08:10:31;4.95;;;2.55;;
64885;SDS011;51514;52.206;5.114;2022-12-07T08:12:57;8.55;;;3.08;;
64885;SDS011;51514;52.206;5.114;2022-12-07T08:15:35;8.77;;;2.70;;
64885;SDS011;51514;52.206;5.114;2022-12-07T08:18:02;4.70;;;2.85;;
64885;SDS011;51514;52.206;5.114;2022-12-07T08:20:29;6.22;;;2.90;;
64885;SDS011;51514;52.206;5.114;2022-12-07T08:22:55;10.52;;;2.60;;
64885;SDS011;51514;52.206;5.114;2022-12-07T08:25:21;11.55;;;3.13;;
64885;SDS011;51514;52.206;5.114;2022-12-07T08:27:50;9.15;;;2.80;;
64885;SDS011;51514;52.206;5.114;2022-12-07T08:30:16;10.68;;;3.13;;
64885;SDS011;51514;52.206;5.114;2022-12-07T08:32:43;7.45;;;2.90;;
64885;SDS011;51514;52.206;5.114;2022-12-07T08:35:09;12.05;;;2.95;;
64885;SDS011;51514;52.206;5.114;2022-12-07T08:37:34;8.07;;;3.42;;
64885;SDS011;51514;52.206;5.114;2022-12-07T08:40:00;9.55;;;3.80;;
64885;SDS011;51514;52.206;5.114;2022-12-07T08:42:26;5.50;;;3.15;;
64885;SDS011;51514;52.206;5.114;2022-12-07T08:44:54;10.88;;;3.72;;
64885;SDS011;51514;52.206;5.114;2022-12-07T08:47:22;8.82;;;3.40;;
64885;SDS011;51514;52.206;5.114;2022-12-07T08:49:48;10.07;;;3.28;;
64885;SDS011;51514;52.206;5.114;2022-12-07T08:52:16;8.70;;;3.30;;
64885;SDS011;51514;52.206;5.114;2022-12-07T08:54:42;7.05;;;3.10;;
64885;SDS011;51514;52.206;5.114;2022-12-07T08:57:08;5.75;;;2.58;;
64885;SDS011;51514;52.206;5.114;2022-12-07T08:59:35;10.23;;;2.92;;
64885;SDS011;51514;52.206;5.114;2022-12-07T09:02:02;8.25;;;2.92;;
64885;SDS011;51514;52.206;5.114;2022-12-07T09:04:27;8.52;;;2.83;;
64885;SDS011;51514;52.206;5.114;2022-12-07T09:06:53;13.07;;;3.67;;
64885;SDS011;51514;52.206;5.114;2022-12-07T09:09:20;8.32;;;2.78;;
64885;SDS011;51514;52.206;5.114;2022-12-07T09:11:45;8.30;;;2.83;;
64885;SDS011;51514;52.206;5.114;2022-12-07T09:14:11;7.28;;;3.25;;
64885;SDS011;51514;52.206;5.114;2022-12-07T09:16:37;9.40;;;4.35;;
64885;SDS011;51514;52.206;5.114;2022-12-07T09:19:02;9.77;;;3.40;;
64885;SDS011;51514;52.206;5.114;2022-12-07T09:21:28;13.35;;;4.32;;
64885;SDS011;51514;52.206;5.114;2022-12-07T09:23:53;13.60;;;4.70;;
64885;SDS011;51514;52.206;5.114;2022-12-07T09:26:18;9.50;;;3.55;;
64885;SDS011;51514;52.206;5.114;2022-12-07T09:28:44;7.60;;;2.92;;
64885;SDS011;51514;52.206;5.114;2022-12-07T09:31:09;10.57;;;3.40;;
64885;SDS011;51514;52.206;5.114;2022-12-07T09:33:35;9.45;;;3.42;;
64885;SDS011;51514;52.206;5.114;2022-12-07T09:36:00;10.57;;;4.38;;
64885;SDS011;51514;52.206;5.114;2022-12-07T09:38:25;9.98;;;2.90;;
64885;SDS011;51514;52.206;5.114;2022-12-07T09:40:51;7.13;;;2.70;;
64885;SDS011;51514;52.206;5.114;2022-12-07T09:43:20;8.63;;;2.80;;
64885;SDS011;51514;52.206;5.114;2022-12-07T09:45:49;7.25;;;3.05;;
64885;SDS011;51514;52.206;5.114;2022-12-07T09:48:19;7.97;;;3.10;;
64885;SDS011;51514;52.206;5.114;2022-12-07T09:50:47;7.80;;;2.90;;
64885;SDS011;51514;52.206;5.114;2022-12-07T09:53:15;8.13;;;3.58;;
64885;SDS011;51514;52.206;5.114;2022-12-07T09:55:46;11.13;;;3.22;;
64885;SDS011;51514;52.206;5.114;2022-12-07T09:58:17;11.13;;;3.15;;
64885;SDS011;51514;52.206;5.114;2022-12-07T10:00:55;5.85;;;3.05;;
64885;SDS011;51514;52.206;5.114;2022-12-07T10:03:23;7.43;;;2.83;;
64885;SDS011;51514;52.206;5.114;2022-12-07T10:05:49;9.52;;;3.05;;
64885;SDS011;51514;52.206;5.114;2022-12-07T10:08:16;11.88;;;3.30;;
64885;SDS011;51514;52.206;5.114;2022-12-07T10:10:42;8.85;;;2.85;;
64885;SDS011;51514;52.206;5.114;2022-12-07T10:21:10;12.68;;;3.55;;
64885;SDS011;51514;52.206;5.114;2022-12-07T10:23:39;9.02;;;3.20;;
64885;SDS011;51514;52.206;5.114;2022-12-07T10:26:40;8.75;;;3.30;;
64885;SDS011;51514;52.206;5.114;2022-12-07T10:31:45;6.30;;;3.35;;
64885;SDS011;51514;52.206;5.114;2022-12-07T10:34:21;11.38;;;3.08;;
64885;SDS011;51514;52.206;5.114;2022-12-07T10:36:49;8.30;;;2.95;;
64885;SDS011;51514;52.206;5.114;2022-12-07T10:39:16;11.05;;;4.05;;
64885;SDS011;51514;52.206;5.114;2022-12-07T10:42:02;8.88;;;3.90;;
64885;SDS011;51514;52.206;5.114;2022-12-07T10:44:29;8.60;;;3.00;;
64885;SDS011;51514;52.206;5.114;2022-12-07T10:50:06;6.45;;;3.20;;
64885;SDS011;51514;52.206;5.114;2022-12-07T10:58:51;6.93;;;2.78;;
64885;SDS011;51514;52.206;5.114;2022-12-07T11:01:35;7.57;;;2.55;;
64885;SDS011;51514;52.206;5.114;2022-12-07T11:06:38;4.82;;;2.20;;
64885;SDS011;51514;52.206;5.114;2022-12-07T11:11:38;10.13;;;2.65;;
64885;SDS011;51514;52.206;5.114;2022-12-07T11:14:23;6.00;;;2.38;;
64885;SDS011;51514;52.206;5.114;2022-12-07T11:17:18;8.10;;;2.40;;
64885;SDS011;51514;52.206;5.114;2022-12-07T11:19:52;6.30;;;2.42;;
64885;SDS011;51514;52.206;5.114;2022-12-07T11:22:36;9.48;;;2.40;;
64885;SDS011;51514;52.206;5.114;2022-12-07T11:38:50;7.18;;;3.00;;
64885;SDS011;51514;52.206;5.114;2022-12-07T11:41:22;10.80;;;2.75;;
64885;SDS011;51514;52.206;5.114;2022-12-07T11:43:54;14.43;;;4.10;;
64885;SDS011;51514;52.206;5.114;2022-12-07T11:46:26;9.20;;;2.50;;
64885;SDS011;51514;52.206;5.114;2022-12-07T11:49:02;10.93;;;3.17;;
64885;SDS011;51514;52.206;5.114;2022-12-07T11:51:35;12.65;;;3.42;;
64885;SDS011;51514;52.206;5.114;2022-12-07T11:54:05;10.38;;;3.00;;
64885;SDS011;51514;52.206;5.114;2022-12-07T11:56:51;7.65;;;2.67;;
64885;SDS011;51514;52.206;5.114;2022-12-07T11:59:23;9.88;;;2.90;;
64885;SDS011;51514;52.206;5.114;2022-12-07T12:02:07;9.77;;;3.67;;
64885;SDS011;51514;52.206;5.114;2022-12-07T12:04:49;9.40;;;2.85;;
64885;SDS011;51514;52.206;5.114;2022-12-07T12:07:22;7.07;;;2.58;;
64885;SDS011;51514;52.206;5.114;2022-12-07T12:10:35;12.15;;;2.55;;
64885;SDS011;51514;52.206;5.114;2022-12-07T12:15:27;6.80;;;2.50;;
64885;SDS011;51514;52.206;5.114;2022-12-07T12:23:35;7.18;;;2.75;;
64885;SDS011;51514;52.206;5.114;2022-12-07T12:26:06;8.45;;;2.70;;
64885;SDS011;51514;52.206;5.114;2022-12-07T12:28:40;9.30;;;2.50;;
64885;SDS011;51514;52.206;5.114;2022-12-07T12:31:15;4.85;;;2.17;;
64885;SDS011;51514;52.206;5.114;2022-12-07T12:33:44;9.98;;;2.83;;
64885;SDS011;51514;52.206;5.114;2022-12-07T12:44:01;9.07;;;2.97;;
64885;SDS011;51514;52.206;5.114;2022-12-07T12:51:47;10.90;;;2.80;;
64885;SDS011;51514;52.206;5.114;2022-12-07T12:57:04;8.27;;;3.40;;
64885;SDS011;51514;52.206;5.114;2022-12-07T13:12:55;10.60;;;2.67;;
64885;SDS011;51514;52.206;5.114;2022-12-07T13:18:39;10.43;;;3.47;;
64885;SDS011;51514;52.206;5.114;2022-12-07T13:31:42;10.43;;;3.08;;
64885;SDS011;51514;52.206;5.114;2022-12-07T13:36:56;5.45;;;1.63;;
64885;SDS011;51514;52.206;5.114;2022-12-07T13:39:23;3.75;;;1.70;;
64885;SDS011;51514;52.206;5.114;2022-12-07T13:41:54;7.97;;;2.08;;
64885;SDS011;51514;52.206;5.114;2022-12-07T13:44:24;7.47;;;2.78;;
64885;SDS011;51514;52.206;5.114;2022-12-07T13:51:49;4.28;;;1.98;;
64885;SDS011;51514;52.206;5.114;2022-12-07T13:54:15;4.85;;;1.98;;
64885;SDS011;51514;52.206;5.114;2022-12-07T13:56:40;2.25;;;1.45;;
64885;SDS011;51514;52.206;5.114;2022-12-07T13:59:14;4.40;;;1.85;;
64885;SDS011;51514;52.206;5.114;2022-12-07T14:01:43;2.03;;;1.40;;
64885;SDS011;51514;52.206;5.114;2022-12-07T14:06:57;3.42;;;1.65;;
64885;SDS011;51514;52.206;5.114;2022-12-07T14:09:24;5.05;;;1.98;;
64885;SDS011;51514;52.206;5.114;2022-12-07T14:11:52;6.72;;;2.20;;
64885;SDS011;51514;52.206;5.114;2022-12-07T14:14:23;4.88;;;2.20;;
64885;SDS011;51514;52.206;5.114;2022-12-07T14:16:55;4.25;;;2.20;;
64885;SDS011;51514;52.206;5.114;2022-12-07T14:24:50;6.40;;;1.75;;
64885;SDS011;51514;52.206;5.114;2022-12-07T14:27:23;2.75;;;1.50;;
64885;SDS011;51514;52.206;5.114;2022-12-07T14:29:55;4.32;;;1.55;;
64885;SDS011;51514;52.206;5.114;2022-12-07T14:32:24;3.35;;;1.52;;
64885;SDS011;51514;52.206;5.114;2022-12-07T14:37:19;1.63;;;1.20;;
64885;SDS011;51514;52.206;5.114;2022-12-07T14:39:45;7.32;;;1.67;;
64885;SDS011;51514;52.206;5.114;2022-12-07T14:42:10;8.05;;;2.08;;
64885;SDS011;51514;52.206;5.114;2022-12-07T14:44:35;6.40;;;2.08;;
64885;SDS011;51514;52.206;5.114;2022-12-07T14:47:01;6.82;;;2.15;;
64885;SDS011;51514;52.206;5.114;2022-12-07T14:49:26;9.48;;;1.77;;
64885;SDS011;51514;52.206;5.114;2022-12-07T14:51:51;5.35;;;2.13;;
64885;SDS011;51514;52.206;5.114;2022-12-07T14:54:18;11.23;;;2.72;;
64885;SDS011;51514;52.206;5.114;2022-12-07T14:56:45;7.03;;;2.25;;
64885;SDS011;51514;52.206;5.114;2022-12-07T14:59:16;6.45;;;2.40;;
64885;SDS011;51514;52.206;5.114;2022-12-07T15:01:42;6.68;;;2.10;;
64885;SDS011;51514;52.206;5.114;2022-12-07T15:04:07;6.43;;;2.47;;
64885;SDS011;51514;52.206;5.114;2022-12-07T15:06:32;5.80;;;2.25;;
64885;SDS011;51514;52.206;5.114;2022-12-07T15:08:58;6.90;;;2.35;;
64885;SDS011;51514;52.206;5.114;2022-12-07T15:11:23;5.40;;;1.85;;
64885;SDS011;51514;52.206;5.114;2022-12-07T15:13:49;5.22;;;1.83;;
64885;SDS011;51514;52.206;5.114;2022-12-07T15:16:34;7.63;;;2.30;;
64885;SDS011;51514;52.206;5.114;2022-12-07T15:19:01;8.25;;;2.40;;
64885;SDS011;51514;52.206;5.114;2022-12-07T15:21:27;7.13;;;2.05;;
64885;SDS011;51514;52.206;5.114;2022-12-07T15:23:52;5.32;;;2.22;;
64885;SDS011;51514;52.206;5.114;2022-12-07T15:26:18;5.68;;;2.13;;
64885;SDS011;51514;52.206;5.114;2022-12-07T15:28:44;10.90;;;2.65;;
64885;SDS011;51514;52.206;5.114;2022-12-07T15:31:13;7.30;;;2.10;;
64885;SDS011;51514;52.206;5.114;2022-12-07T15:33:39;5.10;;;2.17;;
64885;SDS011;51514;52.206;5.114;2022-12-07T15:36:04;5.10;;;2.17;;
64885;SDS011;51514;52.206;5.114;2022-12-07T15:38:30;6.07;;;2.85;;
64885;SDS011;51514;52.206;5.114;2022-12-07T15:40:56;6.43;;;2.15;;
64885;SDS011;51514;52.206;5.114;2022-12-07T15:43:22;4.82;;;2.20;;
64885;SDS011;51514;52.206;5.114;2022-12-07T15:46:06;7.90;;;2.70;;
64885;SDS011;51514;52.206;5.114;2022-12-07T15:48:31;7.03;;;2.47;;
64885;SDS011;51514;52.206;5.114;2022-12-07T15:51:06;6.88;;;2.35;;
64885;SDS011;51514;52.206;5.114;2022-12-07T15:53:33;8.45;;;3.05;;
64885;SDS011;51514;52.206;5.114;2022-12-07T15:55:59;9.38;;;3.00;;
64885;SDS011;51514;52.206;5.114;2022-12-07T15:58:24;5.50;;;2.63;;
64885;SDS011;51514;52.206;5.114;2022-12-07T16:00:50;9.18;;;2.97;;
64885;SDS011;51514;52.206;5.114;2022-12-07T16:03:15;6.80;;;2.15;;
64885;SDS011;51514;52.206;5.114;2022-12-07T16:05:41;10.57;;;3.42;;
64885;SDS011;51514;52.206;5.114;2022-12-07T16:08:06;8.75;;;2.83;;
64885;SDS011;51514;52.206;5.114;2022-12-07T16:10:31;7.53;;;3.53;;
64885;SDS011;51514;52.206;5.114;2022-12-07T16:12:57;6.57;;;2.83;;
64885;SDS011;51514;52.206;5.114;2022-12-07T16:15:22;7.65;;;3.08;;
64885;SDS011;51514;52.206;5.114;2022-12-07T16:17:49;5.55;;;2.70;;
64885;SDS011;51514;52.206;5.114;2022-12-07T16:20:15;9.10;;;3.22;;
64885;SDS011;51514;52.206;5.114;2022-12-07T16:22:41;8.15;;;3.45;;
64885;SDS011;51514;52.206;5.114;2022-12-07T16:25:06;4.85;;;3.45;;
64885;SDS011;51514;52.206;5.114;2022-12-07T16:27:31;8.40;;;4.00;;
64885;SDS011;51514;52.206;5.114;2022-12-07T16:29:57;5.53;;;3.42;;
64885;SDS011;51514;52.206;5.114;2022-12-07T16:32:22;6.32;;;4.03;;
64885;SDS011;51514;52.206;5.114;2022-12-07T16:34:47;7.80;;;4.20;;
64885;SDS011;51514;52.206;5.114;2022-12-07T16:37:13;8.05;;;5.40;;
64885;SDS011;51514;52.206;5.114;2022-12-07T16:39:38;12.20;;;5.05;;
64885;SDS011;51514;52.206;5.114;2022-12-07T16:42:03;9.50;;;4.75;;
64885;SDS011;51514;52.206;5.114;2022-12-07T16:44:29;9.38;;;4.07;;
64885;SDS011;51514;52.206;5.114;2022-12-07T16:46:55;19.55;;;10.32;;
64885;SDS011;51514;52.206;5.114;2022-12-07T16:49:21;9.05;;;5.03;;
64885;SDS011;51514;52.206;5.114;2022-12-07T16:51:49;8.93;;;4.93;;
64885;SDS011;51514;52.206;5.114;2022-12-07T16:54:14;8.18;;;4.45;;
64885;SDS011;51514;52.206;5.114;2022-12-07T16:56:40;8.05;;;3.85;;
64885;SDS011;51514;52.206;5.114;2022-12-07T16:59:06;7.65;;;3.70;;
64885;SDS011;51514;52.206;5.114;2022-12-07T17:01:32;9.13;;;3.85;;
64885;SDS011;51514;52.206;5.114;2022-12-07T17:03:59;11.88;;;3.85;;
64885;SDS011;51514;52.206;5.114;2022-12-07T17:06:25;8.77;;;4.03;;
64885;SDS011;51514;52.206;5.114;2022-12-07T17:08:52;5.53;;;3.35;;
64885;SDS011;51514;52.206;5.114;2022-12-07T17:11:20;9.00;;;4.78;;
64885;SDS011;51514;52.206;5.114;2022-12-07T17:13:47;11.25;;;7.47;;
64885;SDS011;51514;52.206;5.114;2022-12-07T17:16:31;16.17;;;8.10;;
64885;SDS011;51514;52.206;5.114;2022-12-07T17:18:56;7.80;;;4.65;;
64885;SDS011;51514;52.206;5.114;2022-12-07T17:21:22;7.85;;;4.28;;
64885;SDS011;51514;52.206;5.114;2022-12-07T17:23:49;7.93;;;3.75;;
64885;SDS011;51514;52.206;5.114;2022-12-07T17:26:19;10.45;;;5.43;;
64885;SDS011;51514;52.206;5.114;2022-12-07T17:28:47;6.55;;;3.78;;
64885;SDS011;51514;52.206;5.114;2022-12-07T17:31:13;8.77;;;3.72;;